sensor_id;sensor_type;location;lat;lon;timestamp;pressure;altitude;pressure_sealevel;temperature;humidity
25855;BME280;13680;49.936;11.344;2023-08-06T00:00:21;95930.25;;;17.56;85.81
25855;BME280;13680;49.936;11.344;2023-08-06T00:02:47;95933.09;;;17.63;85.09
25855;BME280;13680;49.936;11.344;2023-08-06T00:05:13;95923.72;;;17.61;86.05
25855;BME280;13680;49.936;11.344;2023-08-06T00:07:38;95925.91;;;17.51;86.25
25855;BME280;13680;49.936;11.344;2023-08-06T00:10:04;95922.94;;;17.60;85.92
25855;BME280;13680;49.936;11.344;2023-08-06T00:12:29;95925.31;;;17.62;85.64
25855;BME280;13680;49.936;11.344;2023-08-06T00:14:54;95918.34;;;17.64;85.67
25855;BME280;13680;49.936;11.344;2023-08-06T00:17:20;95915.66;;;17.68;85.84
25855;BME280;13680;49.936;11.344;2023-08-06T00:19:45;95919.59;;;17.71;85.53
25855;BME280;13680;49.936;11.344;2023-08-06T00:22:11;95911.44;;;17.71;86.02
25855;BME280;13680;49.936;11.344;2023-08-06T00:24:36;95926.28;;;17.77;86.17
25855;BME280;13680;49.936;11.344;2023-08-06T00:27:02;95922.78;;;17.76;85.96
25855;BME280;13680;49.936;11.344;2023-08-06T00:29:28;95916.19;;;17.77;85.96
25855;BME280;13680;49.936;11.344;2023-08-06T00:31:53;95914.19;;;17.74;85.72
25855;BME280;13680;49.936;11.344;2023-08-06T00:34:18;95912.94;;;17.68;86.14
25855;BME280;13680;49.936;11.344;2023-08-06T00:36:44;95912.13;;;17.64;86.80
25855;BME280;13680;49.936;11.344;2023-08-06T00:39:09;95910.72;;;17.74;86.84
25855;BME280;13680;49.936;11.344;2023-08-06T00:41:35;95908.03;;;17.77;86.87
25855;BME280;13680;49.936;11.344;2023-08-06T00:44:00;95907.72;;;17.82;86.62
25855;BME280;13680;49.936;11.344;2023-08-06T00:46:26;95899.94;;;17.81;86.80
25855;BME280;13680;49.936;11.344;2023-08-06T00:48:52;95906.91;;;17.78;86.25
25855;BME280;13680;49.936;11.344;2023-08-06T00:51:17;95905.31;;;17.77;86.11
25855;BME280;13680;49.936;11.344;2023-08-06T00:53:43;95904.59;;;17.80;86.13
25855;BME280;13680;49.936;11.344;2023-08-06T00:56:09;95909.13;;;17.73;86.99
25855;BME280;13680;49.936;11.344;2023-08-06T00:58:35;95905.31;;;17.77;87.35
25855;BME280;13680;49.936;11.344;2023-08-06T01:01:01;95904.91;;;17.75;87.22
25855;BME280;13680;49.936;11.344;2023-08-06T01:03:26;95900.53;;;17.67;87.89
25855;BME280;13680;49.936;11.344;2023-08-06T01:05:52;95894.97;;;17.60;88.52
25855;BME280;13680;49.936;11.344;2023-08-06T01:14:14;95903.75;;;17.76;87.49
25855;BME280;13680;49.936;11.344;2023-08-06T01:16:41;95909.91;;;17.73;88.14
25855;BME280;13680;49.936;11.344;2023-08-06T01:19:18;95906.03;;;17.74;88.21
25855;BME280;13680;49.936;11.344;2023-08-06T01:21:44;95912.22;;;17.71;89.52
25855;BME280;13680;49.936;11.344;2023-08-06T01:24:09;95908.75;;;17.74;89.35
25855;BME280;13680;49.936;11.344;2023-08-06T01:26:41;95904.97;;;17.52;89.13
25855;BME280;13680;49.936;11.344;2023-08-06T01:29:13;95909.25;;;17.53;89.38
25855;BME280;13680;49.936;11.344;2023-08-06T01:31:43;95909.59;;;17.51;88.80
25855;BME280;13680;49.936;11.344;2023-08-06T01:34:21;95905.41;;;17.58;88.45
25855;BME280;13680;49.936;11.344;2023-08-06T01:36:47;95904.47;;;17.46;88.49
25855;BME280;13680;49.936;11.344;2023-08-06T01:39:13;95905.09;;;16.90;89.61
25855;BME280;13680;49.936;11.344;2023-08-06T01:41:38;95905.06;;;17.09;87.98
25855;BME280;13680;49.936;11.344;2023-08-06T01:44:04;95897.66;;;17.06;87.29
25855;BME280;13680;49.936;11.344;2023-08-06T01:46:29;95895.75;;;17.10;87.12
25855;BME280;13680;49.936;11.344;2023-08-06T01:48:54;95901.94;;;17.07;85.86
25855;BME280;13680;49.936;11.344;2023-08-06T01:51:20;95890.47;;;17.17;85.75
25855;BME280;13680;49.936;11.344;2023-08-06T01:53:45;95898.47;;;17.10;85.53
25855;BME280;13680;49.936;11.344;2023-08-06T01:56:10;95891.16;;;17.14;85.61
25855;BME280;13680;49.936;11.344;2023-08-06T01:58:36;95892.06;;;17.22;85.67
25855;BME280;13680;49.936;11.344;2023-08-06T02:01:02;95891.59;;;17.16;84.92
25855;BME280;13680;49.936;11.344;2023-08-06T02:03:27;95896.66;;;17.18;85.32
25855;BME280;13680;49.936;11.344;2023-08-06T02:05:52;95888.16;;;17.20;85.80
25855;BME280;13680;49.936;11.344;2023-08-06T02:08:18;95884.75;;;16.99;85.86
25855;BME280;13680;49.936;11.344;2023-08-06T02:10:44;95893.19;;;16.94;85.56
25855;BME280;13680;49.936;11.344;2023-08-06T02:13:10;95894.22;;;16.90;85.73
25855;BME280;13680;49.936;11.344;2023-08-06T02:15:35;95883.03;;;16.91;85.95
25855;BME280;13680;49.936;11.344;2023-08-06T02:18:00;95891.19;;;16.91;85.85
25855;BME280;13680;49.936;11.344;2023-08-06T02:20:26;95885.84;;;16.75;86.53
25855;BME280;13680;49.936;11.344;2023-08-06T02:22:51;95876.31;;;16.85;86.06
25855;BME280;13680;49.936;11.344;2023-08-06T02:25:16;95878.53;;;16.79;86.24
25855;BME280;13680;49.936;11.344;2023-08-06T02:27:42;95875.22;;;16.90;85.44
25855;BME280;13680;49.936;11.344;2023-08-06T02:30:07;95873.41;;;16.74;86.31
25855;BME280;13680;49.936;11.344;2023-08-06T02:32:33;95884.81;;;16.83;86.59
25855;BME280;13680;49.936;11.344;2023-08-06T02:35:01;95878.41;;;16.92;86.03
25855;BME280;13680;49.936;11.344;2023-08-06T02:37:26;95865.97;;;16.91;86.07
25855;BME280;13680;49.936;11.344;2023-08-06T02:39:52;95866.38;;;16.93;85.64
25855;BME280;13680;49.936;11.344;2023-08-06T02:42:17;95865.66;;;16.96;85.46
25855;BME280;13680;49.936;11.344;2023-08-06T02:44:42;95861.81;;;16.97;85.23
25855;BME280;13680;49.936;11.344;2023-08-06T02:47:07;95857.91;;;16.98;85.21
25855;BME280;13680;49.936;11.344;2023-08-06T02:49:33;95850.34;;;16.88;84.43
25855;BME280;13680;49.936;11.344;2023-08-06T02:51:58;95853.97;;;16.92;84.49
25855;BME280;13680;49.936;11.344;2023-08-06T02:54:23;95850.31;;;16.84;84.58
25855;BME280;13680;49.936;11.344;2023-08-06T02:56:49;95844.16;;;16.87;85.17
25855;BME280;13680;49.936;11.344;2023-08-06T02:59:15;95838.81;;;16.91;84.68
25855;BME280;13680;49.936;11.344;2023-08-06T03:01:40;95827.94;;;16.91;84.76
25855;BME280;13680;49.936;11.344;2023-08-06T03:04:06;95827.28;;;16.97;84.93
25855;BME280;13680;49.936;11.344;2023-08-06T03:06:31;95829.53;;;16.92;84.85
25855;BME280;13680;49.936;11.344;2023-08-06T03:08:56;95831.78;;;16.90;84.06
25855;BME280;13680;49.936;11.344;2023-08-06T03:11:22;95823.19;;;16.88;84.38
25855;BME280;13680;49.936;11.344;2023-08-06T03:13:48;95819.28;;;16.85;84.07
25855;BME280;13680;49.936;11.344;2023-08-06T03:16:13;95826.44;;;16.93;84.07
25855;BME280;13680;49.936;11.344;2023-08-06T03:18:39;95829.97;;;16.74;83.34
25855;BME280;13680;49.936;11.344;2023-08-06T03:21:04;95827.66;;;16.76;83.99
25855;BME280;13680;49.936;11.344;2023-08-06T03:23:30;95818.59;;;16.65;83.82
25855;BME280;13680;49.936;11.344;2023-08-06T03:25:55;95819.44;;;16.69;84.02
25855;BME280;13680;49.936;11.344;2023-08-06T03:28:21;95814.84;;;16.73;84.40
25855;BME280;13680;49.936;11.344;2023-08-06T03:30:47;95818.69;;;16.72;84.75
25855;BME280;13680;49.936;11.344;2023-08-06T03:33:12;95812.84;;;16.70;84.95
25855;BME280;13680;49.936;11.344;2023-08-06T03:35:37;95811.03;;;16.78;84.77
25855;BME280;13680;49.936;11.344;2023-08-06T03:38:03;95812.56;;;16.75;84.17
25855;BME280;13680;49.936;11.344;2023-08-06T03:40:28;95805.78;;;16.65;84.77
25855;BME280;13680;49.936;11.344;2023-08-06T03:42:53;95805.00;;;16.65;84.00
25855;BME280;13680;49.936;11.344;2023-08-06T03:45:19;95805.00;;;16.65;84.11
25855;BME280;13680;49.936;11.344;2023-08-06T03:47:44;95808.81;;;16.60;85.14
25855;BME280;13680;49.936;11.344;2023-08-06T03:50:09;95803.38;;;16.60;84.06
25855;BME280;13680;49.936;11.344;2023-08-06T03:52:35;95800.78;;;16.67;83.97
25855;BME280;13680;49.936;11.344;2023-08-06T03:55:00;95799.22;;;16.66;83.95
25855;BME280;13680;49.936;11.344;2023-08-06T03:57:25;95790.34;;;16.69;84.07
25855;BME280;13680;49.936;11.344;2023-08-06T03:59:51;95791.84;;;16.67;84.48
25855;BME280;13680;49.936;11.344;2023-08-06T04:02:16;95780.16;;;16.63;84.55
25855;BME280;13680;49.936;11.344;2023-08-06T04:04:41;95778.59;;;16.62;85.02
25855;BME280;13680;49.936;11.344;2023-08-06T04:07:07;95790.66;;;16.64;85.20
25855;BME280;13680;49.936;11.344;2023-08-06T04:09:32;95788.06;;;16.72;84.29
25855;BME280;13680;49.936;11.344;2023-08-06T04:11:57;95780.09;;;16.59;83.69
25855;BME280;13680;49.936;11.344;2023-08-06T04:14:25;95777.63;;;16.50;84.25
25855;BME280;13680;49.936;11.344;2023-08-06T04:16:51;95784.56;;;16.48;84.87
25855;BME280;13680;49.936;11.344;2023-08-06T04:19:16;95780.75;;;16.52;84.73
25855;BME280;13680;49.936;11.344;2023-08-06T04:21:41;95778.44;;;16.55;84.66
25855;BME280;13680;49.936;11.344;2023-08-06T04:24:07;95783.59;;;16.60;84.21
25855;BME280;13680;49.936;11.344;2023-08-06T04:26:32;95787.47;;;16.59;84.30
25855;BME280;13680;49.936;11.344;2023-08-06T04:28:57;95790.19;;;16.59;84.51
25855;BME280;13680;49.936;11.344;2023-08-06T04:31:22;95793.28;;;16.61;83.99
25855;BME280;13680;49.936;11.344;2023-08-06T04:33:48;95796.81;;;16.61;83.65
25855;BME280;13680;49.936;11.344;2023-08-06T04:36:14;95798.41;;;16.66;83.45
25855;BME280;13680;49.936;11.344;2023-08-06T04:38:39;95794.47;;;16.60;83.39
25855;BME280;13680;49.936;11.344;2023-08-06T04:41:06;95791.75;;;16.60;83.50
25855;BME280;13680;49.936;11.344;2023-08-06T04:43:32;95799.91;;;16.60;84.19
25855;BME280;13680;49.936;11.344;2023-08-06T04:45:57;95797.19;;;16.60;84.04
25855;BME280;13680;49.936;11.344;2023-08-06T04:48:22;95787.88;;;16.61;83.80
25855;BME280;13680;49.936;11.344;2023-08-06T04:50:49;95790.34;;;16.69;83.74
25855;BME280;13680;49.936;11.344;2023-08-06T04:53:15;95791.84;;;16.67;84.33
25855;BME280;13680;49.936;11.344;2023-08-06T04:55:41;95790.41;;;16.73;84.08
25855;BME280;13680;49.936;11.344;2023-08-06T04:58:06;95790.84;;;16.75;83.98
25855;BME280;13680;49.936;11.344;2023-08-06T05:00:33;95790.47;;;16.77;84.95
25855;BME280;13680;49.936;11.344;2023-08-06T05:03:02;95782.38;;;16.80;84.37
25855;BME280;13680;49.936;11.344;2023-08-06T05:05:28;95787.13;;;16.87;84.67
25855;BME280;13680;49.936;11.344;2023-08-06T05:07:55;95789.09;;;16.90;84.38
25855;BME280;13680;49.936;11.344;2023-08-06T05:10:21;95790.78;;;16.95;83.88
25855;BME280;13680;49.936;11.344;2023-08-06T05:12:46;95795.06;;;16.96;83.50
25855;BME280;13680;49.936;11.344;2023-08-06T05:15:11;95792.50;;;16.83;84.13
25855;BME280;13680;49.936;11.344;2023-08-06T05:17:37;95793.84;;;16.93;84.56
25855;BME280;13680;49.936;11.344;2023-08-06T05:20:02;95793.34;;;16.88;84.53
25855;BME280;13680;49.936;11.344;2023-08-06T05:22:28;95784.13;;;16.92;84.26
25855;BME280;13680;49.936;11.344;2023-08-06T05:24:53;95780.56;;;16.88;84.17
25855;BME280;13680;49.936;11.344;2023-08-06T05:27:18;95786.97;;;16.99;84.24
25855;BME280;13680;49.936;11.344;2023-08-06T05:29:45;95786.28;;;17.06;84.10
25855;BME280;13680;49.936;11.344;2023-08-06T05:32:11;95788.88;;;16.99;83.05
25855;BME280;13680;49.936;11.344;2023-08-06T05:34:36;95787.00;;;17.03;83.33
25855;BME280;13680;49.936;11.344;2023-08-06T05:37:03;95786.34;;;17.10;83.77
25855;BME280;13680;49.936;11.344;2023-08-06T05:39:28;95785.19;;;17.11;83.69
25855;BME280;13680;49.936;11.344;2023-08-06T05:41:54;95788.25;;;17.09;83.54
25855;BME280;13680;49.936;11.344;2023-08-06T05:44:20;95792.50;;;17.07;84.48
25855;BME280;13680;49.936;11.344;2023-08-06T05:46:46;95783.31;;;17.15;84.15
25855;BME280;13680;49.936;11.344;2023-08-06T05:49:11;95786.81;;;17.15;84.69
25855;BME280;13680;49.936;11.344;2023-08-06T05:51:38;95783.50;;;17.29;84.12
25855;BME280;13680;49.936;11.344;2023-08-06T05:54:03;95781.88;;;17.25;82.79
25855;BME280;13680;49.936;11.344;2023-08-06T05:56:29;95784.59;;;17.25;82.75
25855;BME280;13680;49.936;11.344;2023-08-06T05:58:54;95780.00;;;17.29;83.64
25855;BME280;13680;49.936;11.344;2023-08-06T06:01:19;95781.16;;;17.28;83.35
25855;BME280;13680;49.936;11.344;2023-08-06T06:03:45;95778.69;;;17.46;83.75
25855;BME280;13680;49.936;11.344;2023-08-06T06:06:10;95772.22;;;17.58;83.74
25855;BME280;13680;49.936;11.344;2023-08-06T06:08:35;95770.78;;;17.67;84.08
25855;BME280;13680;49.936;11.344;2023-08-06T06:11:00;95763.97;;;17.81;84.23
25855;BME280;13680;49.936;11.344;2023-08-06T06:13:26;95775.91;;;18.03;83.24
25855;BME280;13680;49.936;11.344;2023-08-06T06:15:54;95771.66;;;18.06;80.39
25855;BME280;13680;49.936;11.344;2023-08-06T06:18:21;95776.72;;;18.07;79.62
25855;BME280;13680;49.936;11.344;2023-08-06T06:20:46;95772.41;;;18.03;79.81
25855;BME280;13680;49.936;11.344;2023-08-06T06:23:11;95767.53;;;18.23;77.95
25855;BME280;13680;49.936;11.344;2023-08-06T06:25:42;95766.38;;;18.24;77.35
25855;BME280;13680;49.936;11.344;2023-08-06T06:28:07;95767.84;;;18.14;75.03
25855;BME280;13680;49.936;11.344;2023-08-06T06:30:33;95753.38;;;18.06;75.49
25855;BME280;13680;49.936;11.344;2023-08-06T06:32:58;95762.13;;;18.26;76.39
25855;BME280;13680;49.936;11.344;2023-08-06T06:35:23;95759.13;;;18.35;78.21
25855;BME280;13680;49.936;11.344;2023-08-06T06:37:49;95763.06;;;18.41;75.55
25855;BME280;13680;49.936;11.344;2023-08-06T06:40:14;95756.84;;;18.44;74.62
25855;BME280;13680;49.936;11.344;2023-08-06T06:42:40;95753.28;;;18.85;74.29
25855;BME280;13680;49.936;11.344;2023-08-06T06:45:06;95756.22;;;18.62;75.46
25855;BME280;13680;49.936;11.344;2023-08-06T06:47:31;95742.97;;;18.57;76.43
25855;BME280;13680;49.936;11.344;2023-08-06T06:49:57;95753.16;;;18.67;75.10
25855;BME280;13680;49.936;11.344;2023-08-06T06:52:22;95754.44;;;18.80;75.97
25855;BME280;13680;49.936;11.344;2023-08-06T06:54:47;95751.53;;;18.55;75.35
25855;BME280;13680;49.936;11.344;2023-08-06T06:57:13;95753.78;;;18.49;75.55
25855;BME280;13680;49.936;11.344;2023-08-06T06:59:38;95749.22;;;18.61;76.10
25855;BME280;13680;49.936;11.344;2023-08-06T07:02:05;95760.81;;;18.09;78.40
25855;BME280;13680;49.936;11.344;2023-08-06T07:04:30;95748.41;;;18.57;76.42
25855;BME280;13680;49.936;11.344;2023-08-06T07:06:56;95744.63;;;18.69;75.94
25855;BME280;13680;49.936;11.344;2023-08-06T07:09:21;95750.53;;;18.81;76.49
25855;BME280;13680;49.936;11.344;2023-08-06T07:11:46;95749.19;;;19.02;74.40
25855;BME280;13680;49.936;11.344;2023-08-06T07:14:12;95748.84;;;19.14;74.23
25855;BME280;13680;49.936;11.344;2023-08-06T07:16:38;95741.16;;;19.31;73.33
25855;BME280;13680;49.936;11.344;2023-08-06T07:19:03;95739.50;;;19.16;72.27
25855;BME280;13680;49.936;11.344;2023-08-06T07:21:30;95744.09;;;19.01;73.32
25855;BME280;13680;49.936;11.344;2023-08-06T07:23:55;95740.03;;;19.39;72.67
25855;BME280;13680;49.936;11.344;2023-08-06T07:26:21;95746.78;;;19.63;71.80
25855;BME280;13680;49.936;11.344;2023-08-06T07:28:46;95754.94;;;19.67;73.51
25855;BME280;13680;49.936;11.344;2023-08-06T07:31:11;95749.16;;;19.79;72.18
25855;BME280;13680;49.936;11.344;2023-08-06T07:33:37;95746.69;;;19.45;71.95
25855;BME280;13680;49.936;11.344;2023-08-06T07:36:14;95740.28;;;19.16;70.39
25855;BME280;13680;49.936;11.344;2023-08-06T07:38:40;95748.13;;;18.69;73.25
25855;BME280;13680;49.936;11.344;2023-08-06T07:41:06;95742.16;;;19.01;71.75
25855;BME280;13680;49.936;11.344;2023-08-06T07:43:31;95744.81;;;18.94;72.37
25855;BME280;13680;49.936;11.344;2023-08-06T07:45:58;95740.31;;;19.20;72.95
25855;BME280;13680;49.936;11.344;2023-08-06T07:48:24;95736.47;;;19.28;70.23
25855;BME280;13680;49.936;11.344;2023-08-06T07:50:54;95732.50;;;19.14;71.71
25855;BME280;13680;49.936;11.344;2023-08-06T07:53:24;95728.56;;;19.89;68.52
25855;BME280;13680;49.936;11.344;2023-08-06T07:55:52;95718.44;;;19.83;68.24
25855;BME280;13680;49.936;11.344;2023-08-06T07:58:20;95714.56;;;20.05;68.22
25855;BME280;13680;49.936;11.344;2023-08-06T08:00:46;95718.84;;;19.99;67.68
25855;BME280;13680;49.936;11.344;2023-08-06T08:03:15;95717.94;;;19.73;67.53
25855;BME280;13680;49.936;11.344;2023-08-06T08:05:42;95721.88;;;19.72;68.43
25855;BME280;13680;49.936;11.344;2023-08-06T08:08:07;95712.88;;;19.61;68.32
25855;BME280;13680;49.936;11.344;2023-08-06T08:10:34;95719.94;;;18.95;70.67
25855;BME280;13680;49.936;11.344;2023-08-06T08:13:00;95708.50;;;19.38;69.05
25855;BME280;13680;49.936;11.344;2023-08-06T08:15:25;95702.72;;;19.51;68.62
25855;BME280;13680;49.936;11.344;2023-08-06T08:17:52;95713.53;;;19.36;68.19
25855;BME280;13680;49.936;11.344;2023-08-06T08:20:17;95702.25;;;19.34;69.35
25855;BME280;13680;49.936;11.344;2023-08-06T08:22:43;95704.69;;;19.68;69.19
25855;BME280;13680;49.936;11.344;2023-08-06T08:25:08;95696.09;;;19.55;68.80
25855;BME280;13680;49.936;11.344;2023-08-06T08:27:34;95683.00;;;20.37;68.49
25855;BME280;13680;49.936;11.344;2023-08-06T08:29:59;95688.09;;;20.74;67.00
25855;BME280;13680;49.936;11.344;2023-08-06T08:32:24;95681.75;;;21.21;64.96
25855;BME280;13680;49.936;11.344;2023-08-06T08:34:50;95675.69;;;21.77;65.54
25855;BME280;13680;49.936;11.344;2023-08-06T08:37:15;95673.16;;;22.07;63.18
25855;BME280;13680;49.936;11.344;2023-08-06T08:39:40;95672.97;;;22.33;59.90
25855;BME280;13680;49.936;11.344;2023-08-06T08:42:06;95675.47;;;22.62;58.77
25855;BME280;13680;49.936;11.344;2023-08-06T08:44:32;95672.72;;;22.65;58.44
25855;BME280;13680;49.936;11.344;2023-08-06T08:46:59;95676.03;;;22.46;58.34
25855;BME280;13680;49.936;11.344;2023-08-06T08:49:27;95669.22;;;22.12;57.76
25855;BME280;13680;49.936;11.344;2023-08-06T08:51:53;95676.34;;;21.95;59.61
25855;BME280;13680;49.936;11.344;2023-08-06T08:54:21;95665.84;;;21.86;59.24
25855;BME280;13680;49.936;11.344;2023-08-06T08:56:48;95665.19;;;21.64;59.53
25855;BME280;13680;49.936;11.344;2023-08-06T08:59:13;95668.72;;;21.54;58.57
25855;BME280;13680;49.936;11.344;2023-08-06T09:01:39;95673.22;;;20.97;60.18
25855;BME280;13680;49.936;11.344;2023-08-06T09:04:06;95661.72;;;21.46;59.54
25855;BME280;13680;49.936;11.344;2023-08-06T09:06:33;95659.34;;;21.62;58.45
25855;BME280;13680;49.936;11.344;2023-08-06T09:09:08;95668.72;;;21.54;57.27
25855;BME280;13680;49.936;11.344;2023-08-06T09:11:37;95672.47;;;20.75;60.52
25855;BME280;13680;49.936;11.344;2023-08-06T09:14:06;95680.66;;;20.14;62.69
25855;BME280;13680;49.936;11.344;2023-08-06T09:16:35;95685.81;;;19.20;67.72
25855;BME280;13680;49.936;11.344;2023-08-06T09:19:10;95692.41;;;19.11;68.70
25855;BME280;13680;49.936;11.344;2023-08-06T09:21:40;95692.88;;;19.35;68.66
25855;BME280;13680;49.936;11.344;2023-08-06T09:24:12;95696.56;;;18.94;70.14
25855;BME280;13680;49.936;11.344;2023-08-06T09:26:43;95698.16;;;18.99;70.96
25855;BME280;13680;49.936;11.344;2023-08-06T09:29:10;95702.84;;;18.46;72.49
25855;BME280;13680;49.936;11.344;2023-08-06T09:31:47;95697.03;;;18.52;73.24
25855;BME280;13680;49.936;11.344;2023-08-06T09:34:17;95699.47;;;18.19;73.67
25855;BME280;13680;49.936;11.344;2023-08-06T09:36:43;95702.03;;;18.01;73.48
25855;BME280;13680;49.936;11.344;2023-08-06T09:39:19;95707.75;;;18.30;73.56
25855;BME280;13680;49.936;11.344;2023-08-06T09:41:46;95699.69;;;17.99;73.74
25855;BME280;13680;49.936;11.344;2023-08-06T09:44:19;95700.84;;;17.98;73.82
25855;BME280;13680;49.936;11.344;2023-08-06T09:49:21;95692.81;;;18.58;72.38
25855;BME280;13680;49.936;11.344;2023-08-06T09:51:47;95701.78;;;18.13;74.57
25855;BME280;13680;49.936;11.344;2023-08-06T09:54:16;95690.03;;;18.51;72.36
25855;BME280;13680;49.936;11.344;2023-08-06T09:56:42;95692.75;;;19.06;70.88
25855;BME280;13680;49.936;11.344;2023-08-06T09:59:08;95681.09;;;19.09;71.37
25855;BME280;13680;49.936;11.344;2023-08-06T10:01:35;95680.72;;;19.14;70.73
25855;BME280;13680;49.936;11.344;2023-08-06T10:04:01;95681.22;;;19.38;68.16
25855;BME280;13680;49.936;11.344;2023-08-06T10:06:28;95677.38;;;19.54;68.98
25855;BME280;13680;49.936;11.344;2023-08-06T10:08:54;95668.56;;;20.61;64.69
25855;BME280;13680;49.936;11.344;2023-08-06T10:11:21;95679.50;;;20.25;63.83
25855;BME280;13680;49.936;11.344;2023-08-06T10:13:50;95656.28;;;19.36;66.32
25855;BME280;13680;49.936;11.344;2023-08-06T10:16:19;95662.06;;;19.20;66.64
25855;BME280;13680;49.936;11.344;2023-08-06T10:18:47;95659.38;;;19.31;66.76
25855;BME280;13680;49.936;11.344;2023-08-06T10:21:13;95659.69;;;18.48;69.92
25855;BME280;13680;49.936;11.344;2023-08-06T10:23:40;95661.47;;;18.89;67.55
25855;BME280;13680;49.936;11.344;2023-08-06T10:26:06;95664.81;;;18.61;69.42
25855;BME280;13680;49.936;11.344;2023-08-06T10:28:36;95653.25;;;19.52;66.89
25855;BME280;13680;49.936;11.344;2023-08-06T10:31:02;95655.72;;;20.01;65.75
25855;BME280;13680;49.936;11.344;2023-08-06T10:33:48;95647.44;;;20.95;63.08
25855;BME280;13680;49.936;11.344;2023-08-06T10:36:14;95636.84;;;21.15;60.70
25855;BME280;13680;49.936;11.344;2023-08-06T10:38:49;95636.13;;;21.03;59.41
25855;BME280;13680;49.936;11.344;2023-08-06T10:41:22;95633.69;;;21.27;60.18
25855;BME280;13680;49.936;11.344;2023-08-06T10:43:48;95640.50;;;20.21;61.69
25855;BME280;13680;49.936;11.344;2023-08-06T10:46:26;95633.88;;;20.40;61.78
25855;BME280;13680;49.936;11.344;2023-08-06T10:48:51;95636.97;;;19.88;63.00
25855;BME280;13680;49.936;11.344;2023-08-06T10:51:17;95625.88;;;19.27;63.89
25855;BME280;13680;49.936;11.344;2023-08-06T10:53:49;95621.28;;;19.45;64.22
25855;BME280;13680;49.936;11.344;2023-08-06T10:56:23;95622.94;;;19.90;62.96
25855;BME280;13680;49.936;11.344;2023-08-06T10:58:50;95617.47;;;20.51;62.66
25855;BME280;13680;49.936;11.344;2023-08-06T11:01:16;95626.06;;;20.57;62.34
25855;BME280;13680;49.936;11.344;2023-08-06T11:03:42;95629.03;;;19.29;65.29
25855;BME280;13680;49.936;11.344;2023-08-06T11:06:09;95630.63;;;19.52;65.43
25855;BME280;13680;49.936;11.344;2023-08-06T11:08:36;95624.84;;;19.75;64.69
25855;BME280;13680;49.936;11.344;2023-08-06T11:11:13;95627.47;;;19.35;65.13
25855;BME280;13680;49.936;11.344;2023-08-06T11:13:43;95618.25;;;19.83;63.87
25855;BME280;13680;49.936;11.344;2023-08-06T11:16:10;95623.72;;;20.52;63.14
25855;BME280;13680;49.936;11.344;2023-08-06T11:18:35;95625.63;;;20.84;61.34
25855;BME280;13680;49.936;11.344;2023-08-06T11:21:01;95608.66;;;21.36;60.59
25855;BME280;13680;49.936;11.344;2023-08-06T11:23:28;95605.56;;;21.26;61.32
25855;BME280;13680;49.936;11.344;2023-08-06T11:25:54;95611.16;;;20.90;61.09
25855;BME280;13680;49.936;11.344;2023-08-06T11:28:20;95599.53;;;21.64;59.82
25855;BME280;13680;49.936;11.344;2023-08-06T11:30:49;95601.94;;;21.48;58.62
25855;BME280;13680;49.936;11.344;2023-08-06T11:33:20;95620.47;;;21.07;58.73
25855;BME280;13680;49.936;11.344;2023-08-06T11:35:45;95607.19;;;21.09;59.77
25855;BME280;13680;49.936;11.344;2023-08-06T11:38:13;95604.78;;;21.26;58.48
25855;BME280;13680;49.936;11.344;2023-08-06T11:40:38;95596.06;;;21.53;59.17
25855;BME280;13680;49.936;11.344;2023-08-06T11:43:05;95588.63;;;22.59;56.66
25855;BME280;13680;49.936;11.344;2023-08-06T11:45:30;95605.13;;;22.02;56.49
25855;BME280;13680;49.936;11.344;2023-08-06T11:47:56;95595.22;;;22.65;56.01
25855;BME280;13680;49.936;11.344;2023-08-06T11:50:25;95588.19;;;22.64;54.77
25855;BME280;13680;49.936;11.344;2023-08-06T11:52:58;95602.28;;;21.64;57.53
25855;BME280;13680;49.936;11.344;2023-08-06T11:55:24;95594.31;;;21.84;56.42
25855;BME280;13680;49.936;11.344;2023-08-06T11:57:50;95583.25;;;21.99;56.37
25855;BME280;13680;49.936;11.344;2023-08-06T12:00:16;95583.13;;;23.31;55.92
25855;BME280;13680;49.936;11.344;2023-08-06T12:02:47;95591.63;;;22.71;55.55
25855;BME280;13680;49.936;11.344;2023-08-06T12:05:15;95587.53;;;22.87;52.66
25855;BME280;13680;49.936;11.344;2023-08-06T12:07:49;95589.34;;;22.21;54.66
25855;BME280;13680;49.936;11.344;2023-08-06T12:10:16;95583.22;;;22.89;54.50
25855;BME280;13680;49.936;11.344;2023-08-06T12:12:41;95578.31;;;23.39;51.50
25855;BME280;13680;49.936;11.344;2023-08-06T12:15:08;95588.16;;;22.67;53.25
25855;BME280;13680;49.936;11.344;2023-08-06T12:17:34;95587.84;;;21.60;55.60
25855;BME280;13680;49.936;11.344;2023-08-06T12:20:00;95584.34;;;21.56;56.64
25855;BME280;13680;49.936;11.344;2023-08-06T12:22:26;95597.50;;;22.74;55.57
25855;BME280;13680;49.936;11.344;2023-08-06T12:24:51;95586.88;;;21.85;56.49
25855;BME280;13680;49.936;11.344;2023-08-06T12:27:17;95599.09;;;21.73;58.07
25855;BME280;13680;49.936;11.344;2023-08-06T12:29:47;95605.81;;;20.33;63.46
25855;BME280;13680;49.936;11.344;2023-08-06T12:32:13;95602.66;;;20.34;65.38
25855;BME280;13680;49.936;11.344;2023-08-06T12:34:39;95597.22;;;20.34;63.13
25855;BME280;13680;49.936;11.344;2023-08-06T12:37:05;95590.50;;;20.64;65.34
25855;BME280;13680;49.936;11.344;2023-08-06T12:39:32;95583.56;;;21.48;64.58
25855;BME280;13680;49.936;11.344;2023-08-06T12:41:59;95587.00;;;22.19;67.17
25855;BME280;13680;49.936;11.344;2023-08-06T12:44:24;95579.78;;;23.16;62.09
25855;BME280;13680;49.936;11.344;2023-08-06T12:46:54;95579.50;;;23.38;57.91
25855;BME280;13680;49.936;11.344;2023-08-06T12:49:20;95571.59;;;23.44;57.55
25855;BME280;13680;49.936;11.344;2023-08-06T12:51:52;95565.69;;;23.73;57.91
25855;BME280;13680;49.936;11.344;2023-08-06T12:54:18;95562.91;;;24.71;58.46